createdAt,value
2022-08-28T00:01:08.262Z,11.75
2022-08-28T00:03:37.790Z,11.15
2022-08-28T00:06:08.211Z,11.82
2022-08-28T00:08:37.470Z,10.70
2022-08-28T00:11:07.982Z,11.48
2022-08-28T00:13:38.021Z,11.10
2022-08-28T00:16:08.978Z,11.43
2022-08-28T00:18:38.491Z,11.73
2022-08-28T00:21:07.863Z,10.60
2022-08-28T00:23:42.970Z,11.82
2022-08-28T00:26:33.818Z,11.50
2022-08-28T00:29:02.357Z,11.23
2022-08-28T00:31:33.341Z,11.70
2022-08-28T00:34:03.241Z,11.57
2022-08-28T00:36:32.493Z,10.90
2022-08-28T00:39:01.715Z,11.77
2022-08-28T00:41:32.661Z,10.60
2022-08-28T00:44:13.361Z,10.95
2022-08-28T00:46:47.581Z,11.32
2022-08-28T00:49:20.654Z,10.88
2022-08-28T00:52:08.247Z,10.13
2022-08-28T00:54:59.661Z,12.23
2022-08-28T00:57:41.603Z,11.35
2022-08-28T01:00:16.564Z,10.50
2022-08-28T01:02:47.300Z,11.38
2022-08-28T01:05:18.514Z,11.82
2022-08-28T01:07:49.270Z,12.70
2022-08-28T01:10:24.380Z,12.10
2022-08-28T01:12:57.602Z,11.82
2022-08-28T01:15:32.987Z,12.05
2022-08-28T01:18:08.709Z,11.73
2022-08-28T01:20:45.144Z,11.60
2022-08-28T01:23:45.849Z,12.05
2022-08-28T01:26:15.108Z,11.60
2022-08-28T01:28:45.341Z,12.18
2022-08-28T01:31:17.086Z,12.13
2022-08-28T01:33:48.515Z,13.13
2022-08-28T01:36:19.114Z,12.38
2022-08-28T01:38:54.165Z,12.10
2022-08-28T01:41:23.910Z,11.95
2022-08-28T01:43:53.950Z,11.20
2022-08-28T01:46:25.210Z,11.73
2022-08-28T01:48:54.553Z,11.98
2022-08-28T01:51:24.698Z,11.48
2022-08-28T01:53:55.501Z,12.75
2022-08-28T01:56:24.787Z,12.73
2022-08-28T01:58:54.088Z,12.38
2022-08-28T02:05:49.352Z,12.25
2022-08-28T02:08:18.622Z,13.35
2022-08-28T02:10:50.282Z,16.02
2022-08-28T02:13:19.598Z,15.27
2022-08-28T02:15:49.246Z,13.32
2022-08-28T02:18:19.059Z,13.23
2022-08-28T02:20:48.272Z,13.25
2022-08-28T02:23:17.921Z,12.75
2022-08-28T02:25:49.897Z,13.20
2022-08-28T02:28:20.394Z,14.55
2022-08-28T02:30:49.684Z,17.38
2022-08-28T02:33:18.917Z,17.70
2022-08-28T02:35:48.155Z,16.60
2022-08-28T02:38:17.907Z,16.27
2022-08-28T02:40:49.487Z,15.32
2022-08-28T02:43:18.662Z,13.65
2022-08-28T02:45:48.354Z,13.55
2022-08-28T02:48:17.710Z,13.40
2022-08-28T02:50:47.349Z,13.57
2022-08-28T02:53:16.547Z,12.52
2022-08-28T02:55:46.634Z,10.80
2022-08-28T02:58:17.217Z,10.80
2022-08-28T03:00:46.413Z,12.13
2022-08-28T03:03:15.679Z,11.60
2022-08-28T03:05:46.872Z,12.98
2022-08-28T03:08:16.198Z,14.10
2022-08-28T03:10:45.407Z,14.20
2022-08-28T03:13:26.837Z,13.80
2022-08-28T03:15:56.574Z,13.38
2022-08-28T03:18:26.926Z,13.13
2022-08-28T03:20:56.813Z,12.43
2022-08-28T03:23:28.910Z,12.88
2022-08-28T03:26:02.203Z,12.43
2022-08-28T03:28:36.243Z,13.70
2022-08-28T03:31:05.955Z,13.82
2022-08-28T03:33:36.447Z,14.50
2022-08-28T03:36:06.242Z,14.85
2022-08-28T03:38:36.480Z,14.15
2022-08-28T03:41:05.758Z,14.13
2022-08-28T03:43:36.446Z,14.75
2022-08-28T03:46:07.691Z,14.77
2022-08-28T03:48:40.587Z,13.18
2022-08-28T03:51:18.441Z,14.32
2022-08-28T03:53:47.885Z,13.40
2022-08-28T03:56:22.418Z,13.77
2022-08-28T03:58:58.161Z,14.65
2022-08-28T04:01:28.179Z,14.10
2022-08-28T04:03:57.909Z,14.85
2022-08-28T04:06:28.087Z,14.48
2022-08-28T04:08:59.880Z,13.70
2022-08-28T04:11:29.491Z,16.55
2022-08-28T04:14:00.052Z,15.35
2022-08-28T04:16:30.605Z,14.93
2022-08-28T04:19:00.138Z,14.02
2022-08-28T04:21:29.375Z,15.02
2022-08-28T04:23:58.598Z,13.70
2022-08-28T04:26:30.176Z,14.07
2022-08-28T04:29:00.800Z,14.25
2022-08-28T04:31:32.066Z,12.73
2022-08-28T04:34:03.381Z,12.75
2022-08-28T04:36:33.951Z,12.48
2022-08-28T04:39:05.484Z,13.18
2022-08-28T04:41:36.873Z,12.35
2022-08-28T04:44:08.492Z,13.85
2022-08-28T04:46:38.614Z,13.80
2022-08-28T04:49:07.933Z,13.18
2022-08-28T04:51:41.837Z,13.75
2022-08-28T04:54:11.983Z,13.90
2022-08-28T04:56:42.501Z,14.43
2022-08-28T04:59:13.807Z,13.23
2022-08-28T05:01:43.990Z,13.68
2022-08-28T05:04:13.979Z,14.18
2022-08-28T05:06:46.447Z,18.98
2022-08-28T05:09:18.718Z,21.85
2022-08-28T05:11:49.755Z,24.88
2022-08-28T05:14:21.880Z,23.08
2022-08-28T05:16:54.085Z,25.50
2022-08-28T05:19:24.251Z,22.83
2022-08-28T05:21:54.946Z,23.58
2022-08-28T05:24:24.385Z,23.77
2022-08-28T05:26:53.730Z,23.90
2022-08-28T05:29:25.030Z,21.75
2022-08-28T05:31:54.702Z,22.23
2022-08-28T05:34:54.991Z,22.50
2022-08-28T05:38:11.037Z,21.33
2022-08-28T05:40:44.727Z,20.77
2022-08-28T05:43:16.145Z,20.02
2022-08-28T05:45:58.565Z,19.35
2022-08-28T05:48:30.400Z,19.90
2022-08-28T05:51:07.594Z,18.60
2022-08-28T05:53:38.747Z,18.08
2022-08-28T05:56:09.094Z,17.88
2022-08-28T05:58:40.450Z,16.83
2022-08-28T06:01:16.623Z,15.70
2022-08-28T06:03:54.022Z,16.00
2022-08-28T06:06:27.917Z,15.60
2022-08-28T06:09:00.053Z,15.45
2022-08-28T06:11:31.306Z,15.32
2022-08-28T06:14:02.953Z,13.82
2022-08-28T06:16:41.937Z,13.85
2022-08-28T06:19:13.256Z,12.85
2022-08-28T06:21:43.380Z,14.48
2022-08-28T06:24:13.544Z,14.93
2022-08-28T06:26:42.949Z,12.95
2022-08-28T06:29:18.521Z,13.15
2022-08-28T06:31:56.234Z,12.75
2022-08-28T06:34:25.628Z,12.10
2022-08-28T06:36:55.344Z,12.43
2022-08-28T06:39:24.756Z,12.45
2022-08-28T06:41:55.443Z,12.15
2022-08-28T06:44:25.658Z,12.00
2022-08-28T06:46:57.307Z,11.68
2022-08-28T06:49:26.555Z,10.85
2022-08-28T06:51:56.288Z,10.75
2022-08-28T06:54:25.523Z,11.75
2022-08-28T06:56:54.656Z,9.73
2022-08-28T06:59:23.940Z,10.32
2022-08-28T07:01:55.524Z,9.32
2022-08-28T07:04:26.224Z,10.50
2022-08-28T07:06:55.423Z,10.00
2022-08-28T07:09:25.355Z,9.20
2022-08-28T07:11:54.823Z,10.60
2022-08-28T07:14:25.809Z,10.25
2022-08-28T07:16:56.043Z,9.57
2022-08-28T07:19:26.712Z,9.57
2022-08-28T07:21:55.935Z,9.10
2022-08-28T07:24:25.129Z,10.30
2022-08-28T07:26:54.533Z,9.90
2022-08-28T07:29:24.017Z,9.75
2022-08-28T07:31:56.505Z,9.15
2022-08-28T07:34:28.282Z,9.23
2022-08-28T07:37:04.150Z,8.75
2022-08-28T07:39:58.224Z,8.70
2022-08-28T07:42:44.834Z,8.43
2022-08-28T07:45:14.048Z,8.10
2022-08-28T07:47:43.121Z,8.02
2022-08-28T07:50:14.068Z,7.85
2022-08-28T07:52:43.273Z,8.38
2022-08-28T07:55:12.481Z,7.70
2022-08-28T07:57:43.311Z,8.38
2022-08-28T08:00:14.295Z,7.55
2022-08-28T08:02:43.656Z,8.02
2022-08-28T08:05:14.457Z,8.00
2022-08-28T08:07:43.969Z,8.70
2022-08-28T08:10:19.800Z,8.02
2022-08-28T08:12:49.245Z,8.57
2022-08-28T08:15:21.658Z,8.27
2022-08-28T08:17:51.932Z,8.07
2022-08-28T08:20:22.569Z,6.70
2022-08-28T08:22:51.938Z,7.10
2022-08-28T08:25:21.109Z,7.53
2022-08-28T08:27:52.257Z,7.40
2022-08-28T08:30:21.879Z,7.35
2022-08-28T08:32:52.489Z,7.47
2022-08-28T08:35:25.334Z,6.70
2022-08-28T08:37:54.473Z,6.70
2022-08-28T08:40:25.356Z,6.80
2022-08-28T08:42:57.218Z,6.45
2022-08-28T08:45:29.499Z,7.13
2022-08-28T08:48:01.422Z,6.65
2022-08-28T08:50:36.895Z,6.70
2022-08-28T08:53:25.383Z,7.13
2022-08-28T08:55:57.107Z,6.68
2022-08-28T08:58:32.853Z,6.93
2022-08-28T09:01:10.368Z,6.32
2022-08-28T09:03:53.828Z,6.03
2022-08-28T09:06:36.747Z,6.82
2022-08-28T09:09:17.091Z,6.88
2022-08-28T09:11:56.510Z,6.82
2022-08-28T09:14:38.085Z,6.53
2022-08-28T09:17:09.716Z,6.05
2022-08-28T09:19:39.162Z,6.35
2022-08-28T09:22:09.983Z,5.78
2022-08-28T09:24:42.433Z,5.97
2022-08-28T09:27:26.125Z,6.45
2022-08-28T09:30:07.213Z,6.03
2022-08-28T09:32:41.561Z,6.82
2022-08-28T09:35:19.073Z,7.15
2022-08-28T09:37:52.754Z,5.88
2022-08-28T09:40:26.766Z,6.40
2022-08-28T09:43:24.932Z,6.25
2022-08-28T09:45:59.437Z,6.22
2022-08-28T09:48:36.198Z,6.10
2022-08-28T09:51:09.436Z,6.10
2022-08-28T09:53:58.097Z,6.32
2022-08-28T09:56:32.145Z,6.00
2022-08-28T09:59:03.918Z,5.88
2022-08-28T10:01:57.635Z,5.90
2022-08-28T10:04:42.743Z,6.85
2022-08-28T10:07:23.016Z,6.40
2022-08-28T10:10:06.682Z,6.47
2022-08-28T10:12:51.903Z,5.82
2022-08-28T10:15:30.965Z,6.25
2022-08-28T10:18:39.482Z,5.90
2022-08-28T10:21:20.550Z,5.32
2022-08-28T10:24:07.734Z,5.03
2022-08-28T10:26:48.382Z,5.10
2022-08-28T10:29:42.017Z,5.85
2022-08-28T10:32:33.660Z,4.70
2022-08-28T10:35:12.044Z,5.00
2022-08-28T10:37:56.113Z,4.90
2022-08-28T10:40:30.812Z,4.50
2022-08-28T10:43:07.473Z,4.30
2022-08-28T10:45:38.971Z,4.78
2022-08-28T10:48:18.214Z,4.68
2022-08-28T10:50:52.406Z,4.60
2022-08-28T10:53:29.856Z,4.32
2022-08-28T10:56:04.706Z,4.38
2022-08-28T10:58:41.987Z,4.55
2022-08-28T11:01:20.529Z,4.97
2022-08-28T11:03:52.316Z,4.93
2022-08-28T11:06:33.437Z,4.53
2022-08-28T11:09:24.971Z,4.25
2022-08-28T11:12:01.751Z,4.55
2022-08-28T11:14:47.657Z,4.32
2022-08-28T11:17:42.207Z,4.22
2022-08-28T11:20:18.350Z,3.80
2022-08-28T11:22:51.502Z,4.00
2022-08-28T11:25:32.473Z,4.10
2022-08-28T11:28:17.681Z,4.20
2022-08-28T11:30:50.577Z,4.47
2022-08-28T11:33:41.967Z,4.28
2022-08-28T11:36:14.330Z,4.03
2022-08-28T11:39:22.115Z,3.50
2022-08-28T11:42:36.288Z,4.15
2022-08-28T11:45:06.653Z,3.95
2022-08-28T11:47:45.021Z,4.13
2022-08-28T11:50:31.671Z,4.13
2022-08-28T11:53:35.049Z,4.82
2022-08-28T11:56:31.838Z,4.07
2022-08-28T11:59:25.386Z,3.97
2022-08-28T12:02:53.441Z,4.13
2022-08-28T12:05:52.493Z,4.00
2022-08-28T12:09:13.658Z,4.38
2022-08-28T12:12:01.776Z,4.00
2022-08-28T12:15:10.795Z,3.85
2022-08-28T12:17:51.373Z,3.70
2022-08-28T12:20:33.587Z,4.22
2022-08-28T12:23:25.279Z,4.03
2022-08-28T12:26:04.753Z,3.88
2022-08-28T12:28:41.469Z,3.80
2022-08-28T12:32:08.877Z,3.83
2022-08-28T12:35:07.686Z,3.90
2022-08-28T12:37:51.286Z,3.88
2022-08-28T12:40:24.854Z,4.22
2022-08-28T12:42:58.358Z,3.83
2022-08-28T12:45:35.149Z,4.05
2022-08-28T12:48:10.491Z,4.03
2022-08-28T12:50:41.869Z,3.80
2022-08-28T12:53:18.203Z,3.95
2022-08-28T12:55:48.163Z,3.58
2022-08-28T12:58:33.298Z,3.85
2022-08-28T13:01:09.814Z,3.38
2022-08-28T13:03:50.470Z,3.88
2022-08-28T13:06:28.995Z,3.78
2022-08-28T13:09:04.289Z,3.75
2022-08-28T13:11:37.935Z,3.60
2022-08-28T13:14:08.589Z,3.40
2022-08-28T13:16:43.223Z,3.85
2022-08-28T13:19:36.227Z,4.03
2022-08-28T13:22:08.725Z,4.22
2022-08-28T13:24:46.910Z,3.63
2022-08-28T13:27:25.499Z,4.05
2022-08-28T13:30:08.297Z,4.00
2022-08-28T13:32:40.269Z,3.67
2022-08-28T13:35:37.717Z,4.07
2022-08-28T13:38:11.607Z,3.88
2022-08-28T13:40:58.303Z,4.15
2022-08-28T13:43:31.663Z,3.70
2022-08-28T13:46:01.199Z,3.42
2022-08-28T13:48:30.413Z,3.97
2022-08-28T13:51:07.506Z,4.22
2022-08-28T13:53:39.057Z,3.60
2022-08-28T13:56:09.663Z,4.10
2022-08-28T13:58:38.840Z,4.03
2022-08-28T14:01:08.417Z,4.32
2022-08-28T14:03:37.908Z,4.18
2022-08-28T14:06:11.637Z,4.03
2022-08-28T14:08:41.456Z,4.25
2022-08-28T14:11:15.051Z,4.25
2022-08-28T14:13:47.312Z,4.10
2022-08-28T14:16:25.922Z,4.80
2022-08-28T14:18:55.446Z,4.30
2022-08-28T14:21:25.424Z,3.90
2022-08-28T14:23:54.644Z,3.95
2022-08-28T14:26:25.318Z,4.30
2022-08-28T14:28:54.538Z,4.30
2022-08-28T14:31:26.457Z,3.55
2022-08-28T14:33:57.395Z,4.00
2022-08-28T14:36:31.443Z,4.00
2022-08-28T14:39:06.166Z,3.97
2022-08-28T14:41:37.886Z,3.70
2022-08-28T14:49:24.182Z,4.30
2022-08-28T14:51:55.120Z,4.13
2022-08-28T14:54:26.509Z,3.92
2022-08-28T14:57:13.934Z,3.97
2022-08-28T15:02:14.834Z,3.83
2022-08-28T15:04:44.172Z,3.70
2022-08-28T15:07:13.842Z,3.60
2022-08-28T15:09:44.198Z,3.50
2022-08-28T15:12:14.861Z,3.55
2022-08-28T15:14:55.231Z,4.00
2022-08-28T15:17:33.819Z,4.47
2022-08-28T15:20:07.834Z,4.07
2022-08-28T15:22:37.090Z,4.00
2022-08-28T15:25:07.711Z,4.10
2022-08-28T15:30:33.590Z,4.88
2022-08-28T15:33:02.968Z,4.63
2022-08-28T15:35:33.905Z,4.70
2022-08-28T15:38:06.730Z,4.70
2022-08-28T15:40:53.866Z,5.00
2022-08-28T15:43:23.194Z,4.50
2022-08-28T15:45:54.065Z,4.65
2022-08-28T15:48:23.460Z,4.55
2022-08-28T15:50:52.749Z,4.65
2022-08-28T15:53:22.283Z,4.75
2022-08-28T15:55:51.866Z,5.30
2022-08-28T15:58:21.257Z,5.60
2022-08-28T16:00:51.023Z,5.53
2022-08-28T16:03:26.715Z,5.63
2022-08-28T16:05:56.633Z,5.75
2022-08-28T16:08:27.356Z,5.80
2022-08-28T16:10:57.035Z,5.60
2022-08-28T16:13:26.335Z,5.32
2022-08-28T16:15:55.907Z,6.30
2022-08-28T16:18:29.373Z,6.38
2022-08-28T16:21:02.691Z,5.13
2022-08-28T16:23:37.391Z,6.30
2022-08-28T16:26:08.381Z,5.70
2022-08-28T16:28:43.745Z,6.30
2022-08-28T16:31:19.210Z,6.68
2022-08-28T16:33:53.637Z,6.75
2022-08-28T16:36:23.873Z,6.88
2022-08-28T16:39:04.916Z,6.95
2022-08-28T16:41:36.344Z,7.50
2022-08-28T16:44:05.883Z,7.40
2022-08-28T16:46:37.387Z,6.97
2022-08-28T16:49:08.061Z,7.60
2022-08-28T16:51:37.505Z,7.43
2022-08-28T16:54:07.568Z,7.18
2022-08-28T16:56:37.211Z,7.20
2022-08-28T16:59:10.562Z,7.95
2022-08-28T17:01:42.708Z,7.85
2022-08-28T17:04:14.176Z,8.20
2022-08-28T17:06:46.093Z,7.13
2022-08-28T17:09:15.650Z,7.53
2022-08-28T17:11:45.065Z,8.68
2022-08-28T17:14:22.173Z,7.82
2022-08-28T17:16:53.547Z,8.30
2022-08-28T17:19:27.533Z,8.18
2022-08-28T17:22:17.224Z,8.13
2022-08-28T17:24:47.002Z,13.23
2022-08-28T17:27:22.425Z,14.57
2022-08-28T17:29:58.992Z,25.92
2022-08-28T17:32:28.726Z,10.23
2022-08-28T17:34:59.756Z,9.70
2022-08-28T17:37:29.482Z,9.45
2022-08-28T17:39:58.965Z,8.30
2022-08-28T17:42:28.370Z,9.73
2022-08-28T17:44:57.673Z,9.82
2022-08-28T17:47:30.702Z,10.63
2022-08-28T17:50:02.850Z,12.25
2022-08-28T17:52:33.004Z,11.15
2022-08-28T17:55:02.977Z,11.80
2022-08-28T17:57:32.584Z,12.30
2022-08-28T18:00:05.277Z,12.05
2022-08-28T18:02:41.440Z,11.45
2022-08-28T18:05:16.883Z,12.82
2022-08-28T18:07:46.468Z,13.73
2022-08-28T18:10:16.538Z,11.70
2022-08-28T18:12:46.313Z,13.25
2022-08-28T18:15:16.923Z,13.50
2022-08-28T18:17:50.594Z,12.48
2022-08-28T18:20:21.744Z,11.68
2022-08-28T18:22:51.459Z,11.15
2022-08-28T18:25:42.177Z,11.65
2022-08-28T18:28:23.859Z,11.48
2022-08-28T18:30:56.821Z,12.15
2022-08-28T18:33:29.823Z,13.48
2022-08-28T18:36:01.011Z,14.07
2022-08-28T18:38:35.065Z,12.30
2022-08-28T18:41:10.220Z,11.60
2022-08-28T18:43:40.160Z,12.38
2022-08-28T18:46:38.603Z,12.25
2022-08-28T18:51:44.339Z,11.75
2022-08-28T18:54:21.381Z,11.50
2022-08-28T18:56:52.487Z,11.90
2022-08-28T18:59:22.645Z,12.35
2022-08-28T19:01:53.927Z,11.18
2022-08-28T19:04:23.831Z,11.50
2022-08-28T19:06:54.729Z,11.98
2022-08-28T19:09:30.338Z,12.05
2022-08-28T19:12:03.562Z,12.55
2022-08-28T19:14:36.458Z,15.10
2022-08-28T19:17:05.852Z,15.95
2022-08-28T19:19:35.292Z,16.52
2022-08-28T19:22:08.180Z,17.58
2022-08-28T19:24:38.512Z,16.20
2022-08-28T19:27:07.921Z,16.80
2022-08-28T19:29:37.993Z,16.13
2022-08-28T19:32:08.474Z,18.25
2022-08-28T19:34:38.210Z,17.60
2022-08-28T19:37:09.207Z,17.00
2022-08-28T19:39:39.046Z,17.23
2022-08-28T19:42:09.194Z,15.20
2022-08-28T19:44:39.781Z,16.25
2022-08-28T19:47:10.435Z,14.77
2022-08-28T19:49:39.539Z,13.48
2022-08-28T19:52:10.513Z,13.57
2022-08-28T19:54:42.505Z,14.25
2022-08-28T19:57:12.429Z,15.10
2022-08-28T19:59:41.994Z,14.80
2022-08-28T20:02:14.306Z,15.65
2022-08-28T20:04:43.474Z,16.33
2022-08-28T20:07:14.299Z,16.33
2022-08-28T20:09:43.888Z,16.08
2022-08-28T20:12:14.818Z,17.90
2022-08-28T20:14:44.746Z,16.50
2022-08-28T20:17:14.280Z,17.77
2022-08-28T20:19:45.836Z,18.08
2022-08-28T20:22:21.504Z,18.40
2022-08-28T20:24:51.061Z,17.08
2022-08-28T20:27:21.247Z,15.90
2022-08-28T20:29:50.406Z,16.08
2022-08-28T20:32:19.583Z,15.75
2022-08-28T20:34:48.903Z,16.00
2022-08-28T20:37:19.587Z,14.27
2022-08-28T20:39:48.793Z,13.40
2022-08-28T20:42:18.381Z,14.90
2022-08-28T20:44:47.519Z,14.30
2022-08-28T20:47:16.653Z,13.55
2022-08-28T20:49:45.857Z,13.23
2022-08-28T20:52:15.702Z,12.45
2022-08-28T20:54:46.433Z,12.60
2022-08-28T20:57:21.309Z,14.02
2022-08-28T20:59:50.822Z,14.05
2022-08-28T21:02:24.712Z,13.00
2022-08-28T21:04:55.004Z,14.10
2022-08-28T21:07:26.624Z,13.60
2022-08-28T21:10:05.980Z,13.23
2022-08-28T21:12:37.882Z,13.60
2022-08-28T21:15:10.826Z,12.68
2022-08-28T21:17:40.095Z,12.25
2022-08-28T21:20:14.898Z,12.00
2022-08-28T21:22:44.517Z,13.50
2022-08-28T21:25:16.695Z,13.75
2022-08-28T21:27:47.013Z,13.20
2022-08-28T21:30:20.000Z,14.20
2022-08-28T21:32:50.028Z,15.00
2022-08-28T21:35:21.441Z,14.43
2022-08-28T21:37:51.212Z,13.52
2022-08-28T21:40:21.989Z,14.20
2022-08-28T21:42:51.285Z,12.90
2022-08-28T21:45:20.496Z,13.90
2022-08-28T21:47:49.668Z,13.82
2022-08-28T21:50:18.797Z,13.70
2022-08-28T21:52:47.964Z,13.52
2022-08-28T21:55:17.889Z,13.85
2022-08-28T21:57:48.513Z,13.68
2022-08-28T22:00:22.549Z,12.82
2022-08-28T22:02:51.794Z,13.60
2022-08-28T22:05:21.462Z,14.20
2022-08-28T22:07:50.647Z,14.40
2022-08-28T22:10:19.814Z,13.55
2022-08-28T22:12:50.610Z,13.93
2022-08-28T22:15:20.027Z,13.90
2022-08-28T22:17:49.153Z,13.10
2022-08-28T22:20:18.613Z,14.18
2022-08-28T22:23:05.272Z,14.13
2022-08-28T22:25:40.619Z,13.85
2022-08-28T22:28:11.984Z,13.13
2022-08-28T22:30:41.202Z,12.20
2022-08-28T22:33:13.053Z,12.95
2022-08-28T22:35:42.212Z,12.23
2022-08-28T22:38:11.762Z,12.95
2022-08-28T22:40:40.944Z,12.20
2022-08-28T22:43:11.577Z,12.95
2022-08-28T22:45:40.879Z,12.45
2022-08-28T22:48:11.154Z,10.95
2022-08-28T22:50:40.369Z,10.80
2022-08-28T22:53:09.833Z,10.90
2022-08-28T22:55:43.355Z,11.30
2022-08-28T22:58:14.345Z,11.13
2022-08-28T23:00:43.772Z,12.65
2022-08-28T23:03:12.987Z,11.15
2022-08-28T23:05:42.346Z,11.10
2022-08-28T23:08:11.537Z,11.13
2022-08-28T23:10:58.007Z,11.50
2022-08-28T23:13:31.152Z,10.40
2022-08-28T23:16:00.903Z,10.05
2022-08-28T23:18:41.548Z,10.98
2022-08-28T23:21:20.848Z,10.27
2022-08-28T23:23:49.931Z,10.05
2022-08-28T23:26:19.937Z,9.88
2022-08-28T23:28:50.752Z,11.30
2022-08-28T23:31:20.097Z,10.15
2022-08-28T23:33:50.949Z,10.48
2022-08-28T23:36:20.767Z,11.35
2022-08-28T23:38:49.923Z,11.90
2022-08-28T23:41:21.368Z,12.27
2022-08-28T23:43:52.667Z,12.00
2022-08-28T23:46:21.974Z,13.07
2022-08-28T23:48:51.158Z,13.25
2022-08-28T23:51:22.685Z,16.65
2022-08-28T23:53:54.321Z,18.10
2022-08-28T23:56:23.531Z,18.50
2022-08-28T23:58:58.965Z,19.67
